Time;durP1;ratioP1;P1;durP2;ratioP2;P2;SDS_P1;SDS_P2;PMS_P1;PMS_P2;Temp;Humidity;BMP_temperature;BMP_pressure;BME280_temperature;BME280_humidity;BME280_pressure;Samples;Min_cycle;Max_cycle;Signal;HPM_P1;HPM_P2
2021/05/01 00:01:43;;;;;;;;;;;;;;;12.08;100.00;101083.00;1835331;78;20525;-73
2021/05/01 00:04:11;;;;;;;;;;;;;;;12.05;100.00;101084.97;1837070;78;20259;-73
2021/05/01 00:06:40;;;;;;;;;;;;;;;12.01;100.00;101094.73;1835158;78;20509;-73
2021/05/01 00:09:09;;;;;;;;;;;;;;;11.96;100.00;101087.70;1837087;78;21186;-73
2021/05/01 00:11:37;;;;;;;;;;;;;;;11.94;100.00;101086.95;1835105;78;20490;-73
2021/05/01 00:14:06;;;;;;;;;;;;;;;11.92;100.00;101086.23;1835078;78;20247;-73
2021/05/01 00:16:35;;;;;;;;;;;;;;;11.90;100.00;101088.57;1835046;78;20290;-73
2021/05/01 00:19:03;;;;;;;;;;;;;;;11.90;100.00;101091.17;1834921;78;20247;-73
2021/05/01 00:21:31;;;;;;;;;;;;;;;11.88;100.00;101091.72;1837350;78;21290;-73
2021/05/01 00:24:00;;;;;;;;;;;;;;;11.88;100.00;101096.45;1835074;78;20163;-73
2021/05/01 00:26:29;;;;;;;;;;;;;;;11.87;100.00;101094.77;1835219;78;20533;-73
2021/05/01 00:28:58;;;;;;;;;;;;;;;11.86;100.00;101096.19;1835024;78;20248;-73
2021/05/01 00:31:27;;;;;;;;;;;;;;;11.81;100.00;101100.38;1835090;78;20167;-73
2021/05/01 00:33:55;;;;;;;;;;;;;;;11.78;100.00;101110.13;1835146;78;22093;-73
2021/05/01 00:36:24;;;;;;;;;;;;;;;11.70;100.00;101097.64;1835054;78;20148;-73
2021/05/01 00:38:54;;;;;;;;;;;;;;;11.63;100.00;101104.13;1835150;78;20251;-73
2021/05/01 00:41:22;;;;;;;;;;;;;;;11.58;100.00;101106.19;1835387;78;20199;-74
2021/05/01 00:43:50;;;;;;;;;;;;;;;11.55;100.00;101112.39;1835163;78;20143;-73
2021/05/01 00:46:18;;;;;;;;;;;;;;;11.54;100.00;101108.15;1835004;78;22112;-73
2021/05/01 00:48:47;;;;;;;;;;;;;;;11.53;100.00;101112.97;1837173;78;20646;-73
2021/05/01 00:51:14;;;;;;;;;;;;;;;11.49;100.00;101116.68;1837023;78;20222;-73
2021/05/01 00:53:44;;;;;;;;;;;;;;;11.48;100.00;101108.99;1836925;78;20167;-73
2021/05/01 00:56:12;;;;;;;;;;;;;;;11.48;100.00;101109.83;1834950;78;20187;-73
2021/05/01 00:58:40;;;;;;;;;;;;;;;11.47;100.00;101105.55;1835250;78;21034;-73
2021/05/01 01:01:19;;;;;;;;;;;;;;;11.48;100.00;101112.89;1834973;78;20247;-73
2021/05/01 01:03:48;;;;;;;;;;;;;;;11.46;100.00;101109.08;1835151;78;20159;-73
2021/05/01 01:06:16;;;;;;;;;;;;;;;11.46;100.00;101116.03;1835191;78;20617;-73
2021/05/01 01:08:43;;;;;;;;;;;;;;;11.46;100.00;101128.56;1835112;78;20227;-73
2021/05/01 01:11:12;;;;;;;;;;;;;;;11.45;100.00;101130.81;1835005;78;21140;-73
2021/05/01 01:13:41;;;;;;;;;;;;;;;11.44;100.00;101132.20;1836831;78;20202;-73
2021/05/01 01:16:09;;;;;;;;;;;;;;;11.42;100.00;101132.28;1835147;78;20322;-73
2021/05/01 01:18:37;;;;;;;;;;;;;;;11.41;100.00;101137.12;1837197;78;20215;-73
2021/05/01 01:21:06;;;;;;;;;;;;;;;11.38;100.00;101134.72;1835175;78;20164;-73
2021/05/01 01:23:34;;;;;;;;;;;;;;;11.33;100.00;101133.31;1835254;78;22129;-73
2021/05/01 01:26:02;;;;;;;;;;;;;;;11.25;100.00;101131.66;1834916;78;20616;-73
2021/05/01 01:28:30;;;;;;;;;;;;;;;11.22;100.00;101126.66;1835276;78;20160;-73
2021/05/01 01:30:59;;;;;;;;;;;;;;;11.22;100.00;101117.56;1835382;78;20235;-73
2021/05/01 01:33:27;;;;;;;;;;;;;;;11.22;100.00;101116.27;1837213;78;20120;-73
2021/05/01 01:35:55;;;;;;;;;;;;;;;11.21;100.00;101119.32;1837293;78;21208;-73
2021/05/01 01:38:24;;;;;;;;;;;;;;;11.20;100.00;101120.73;1834934;78;20124;-73
2021/05/01 01:40:51;;;;;;;;;;;;;;;11.21;100.00;101123.67;1835186;78;20806;-73
2021/05/01 01:43:19;;;;;;;;;;;;;;;11.20;100.00;101126.73;1835387;78;20692;-73
2021/05/01 01:45:47;;;;;;;;;;;;;;;11.20;100.00;101125.92;1835202;78;20518;-73
2021/05/01 01:48:15;;;;;;;;;;;;;;;11.20;100.00;101125.43;1837387;78;22225;-73
2021/05/01 01:50:43;;;;;;;;;;;;;;;11.20;100.00;101124.13;1835170;78;20580;-73
2021/05/01 01:53:11;;;;;;;;;;;;;;;11.18;100.00;101119.51;1835036;78;20187;-73
2021/05/01 01:55:39;;;;;;;;;;;;;;;11.21;100.00;101120.62;1835182;78;20251;-73
2021/05/01 01:58:08;;;;;;;;;;;;;;;11.22;100.00;101114.50;1836956;78;20239;-73
2021/05/01 02:00:36;;;;;;;;;;;;;;;11.22;100.00;101120.16;1835180;78;22200;-73
2021/05/01 02:03:05;;;;;;;;;;;;;;;11.20;100.00;101120.73;1835207;78;20660;-73
2021/05/01 02:05:33;;;;;;;;;;;;;;;11.20;100.00;101122.84;1834861;78;20211;-73
2021/05/01 02:08:02;;;;;;;;;;;;;;;11.18;100.00;101126.46;1834963;78;20313;-73
2021/05/01 02:10:29;;;;;;;;;;;;;;;11.09;100.00;101129.16;1837373;78;20231;-74
2021/05/01 02:12:58;;;;;;;;;;;;;;;11.00;100.00;101123.23;1835110;78;21237;-73
2021/05/01 02:15:27;;;;;;;;;;;;;;;10.92;100.00;101117.19;1835198;78;20144;-73
2021/05/01 02:17:55;;;;;;;;;;;;;;;10.87;100.00;101118.40;1837301;78;20160;-73
2021/05/01 02:20:25;;;;;;;;;;;;;;;10.84;100.00;101120.72;1837356;78;20187;-73
2021/05/01 02:22:53;;;;;;;;;;;;;;;10.83;100.00;101116.91;1835207;78;20581;-73
2021/05/01 02:25:22;;;;;;;;;;;;;;;10.84;100.00;101116.83;1835419;78;21622;-73
2021/05/01 02:27:50;;;;;;;;;;;;;;;10.85;100.00;101113.77;1835335;78;20643;-72
2021/05/01 02:30:20;;;;;;;;;;;;;;;10.86;100.00;101106.34;1835165;78;20171;-73
2021/05/01 02:32:48;;;;;;;;;;;;;;;10.86;100.00;101113.67;1835269;78;20576;-73
2021/05/01 02:35:18;;;;;;;;;;;;;;;10.86;100.00;101114.13;1835311;78;20294;-73
2021/05/01 02:37:46;;;;;;;;;;;;;;;10.85;100.00;101113.28;1835338;78;21231;-73
2021/05/01 02:40:16;;;;;;;;;;;;;;;10.88;100.00;101114.89;1835373;78;20521;-73
2021/05/01 02:42:45;;;;;;;;;;;;;;;10.90;100.00;101115.16;1835154;78;20180;-73
2021/05/01 02:45:15;;;;;;;;;;;;;;;10.91;100.00;101106.42;1837262;78;20786;-72
2021/05/01 02:47:45;;;;;;;;;;;;;;;10.91;100.00;101105.62;1835397;78;20259;-72
2021/05/01 02:50:13;;;;;;;;;;;;;;;10.93;100.00;101114.97;1835219;78;22213;-72
2021/05/01 02:52:41;;;;;;;;;;;;;;;10.94;100.00;101121.84;1835161;78;20255;-72
2021/05/01 02:55:12;;;;;;;;;;;;;;;10.96;100.00;101123.03;1835142;78;20303;-72
2021/05/01 02:57:40;;;;;;;;;;;;;;;10.94;100.00;101133.53;1835055;78;20250;-71
2021/05/01 03:00:11;;;;;;;;;;;;;;;10.96;100.00;101136.02;1835126;78;20259;-72
2021/05/01 03:02:39;;;;;;;;;;;;;;;10.96;100.00;101136.86;1835357;78;21197;-72
2021/05/01 03:05:08;;;;;;;;;;;;;;;10.99;100.00;101136.67;1835276;78;20124;-72
2021/05/01 03:07:36;;;;;;;;;;;;;;;11.03;100.00;101138.63;1835291;78;20510;-72
2021/05/01 03:10:06;;;;;;;;;;;;;;;11.07;100.00;101134.92;1835109;78;20247;-72
2021/05/01 03:12:34;;;;;;;;;;;;;;;11.10;100.00;101137.34;1835271;78;20223;-72
2021/05/01 03:15:04;;;;;;;;;;;;;;;11.15;100.00;101141.31;1835271;78;21146;-72
2021/05/01 03:17:32;;;;;;;;;;;;;;;11.23;100.00;101143.92;1835236;78;20191;-72
2021/05/01 03:20:01;;;;;;;;;;;;;;;11.30;100.00;101142.59;1835186;78;20160;-72
2021/05/01 03:22:29;;;;;;;;;;;;;;;11.34;100.00;101142.33;1835117;78;20964;-72
2021/05/01 03:24:57;;;;;;;;;;;;;;;11.39;100.00;101145.45;1834992;78;20251;-73
2021/05/01 03:27:26;;;;;;;;;;;;;;;11.42;100.00;101145.27;1835169;78;21194;-72
2021/05/01 03:29:55;;;;;;;;;;;;;;;11.44;100.00;101142.13;1834991;78;20231;-72
2021/05/01 03:32:23;;;;;;;;;;;;;;;11.47;100.00;101148.44;1835235;78;20282;-72
2021/05/01 03:34:51;;;;;;;;;;;;;;;11.51;100.00;101155.58;1835061;78;20239;-71
2021/05/01 03:37:18;;;;;;;;;;;;;;;11.51;100.00;101155.58;1835209;78;20509;-72
2021/05/01 03:39:46;;;;;;;;;;;;;;;11.53;100.00;101162.34;1835254;78;21343;-72
2021/05/01 03:42:14;;;;;;;;;;;;;;;11.55;100.00;101162.27;1834992;78;20148;-72
2021/05/01 03:44:42;;;;;;;;;;;;;;;11.58;100.00;101163.38;1835256;78;20504;-73
2021/05/01 03:47:10;;;;;;;;;;;;;;;11.62;100.00;101170.88;1837014;78;20306;-72
2021/05/01 03:49:41;;;;;;;;;;;;;;;11.68;100.00;101172.25;1835011;78;20167;-72
2021/05/01 03:52:09;;;;;;;;;;;;;;;11.73;100.00;101177.20;1835155;78;21251;-72
2021/05/01 03:54:36;;;;;;;;;;;;;;;11.79;100.00;101172.92;1835219;78;20534;-71
2021/05/01 03:57:04;;;;;;;;;;;;;;;11.86;100.00;101167.70;1831382;78;20179;-72
2021/05/01 03:59:33;;;;;;;;;;;;;;;11.90;100.00;101164.80;1808194;78;20164;-72
2021/05/01 04:02:01;;;;;;;;;;;;;;;11.92;100.00;101164.72;1808049;78;20276;-72
2021/05/01 04:04:29;;;;;;;;;;;;;;;11.93;100.00;101169.83;1808392;79;21424;-72
2021/05/01 04:06:58;;;;;;;;;;;;;;;11.96;100.00;101167.03;1808257;79;20506;-71
2021/05/01 04:09:28;;;;;;;;;;;;;;;12.01;100.00;101174.06;1808582;79;20236;-72
2021/05/01 04:11:57;;;;;;;;;;;;;;;12.06;100.00;101181.09;1808547;78;20181;-72
2021/05/01 04:14:25;;;;;;;;;;;;;;;12.09;100.00;101178.30;1808271;79;20634;-72
2021/05/01 04:16:53;;;;;;;;;;;;;;;12.14;100.00;101177.55;1808324;79;21193;-72
2021/05/01 04:19:21;;;;;;;;;;;;;;;12.20;100.00;101175.02;1808575;79;20630;-71
2021/05/01 04:21:49;;;;;;;;;;;;;;;12.25;100.00;101183.38;1808382;79;20514;-72
2021/05/01 04:24:17;;;;;;;;;;;;;;;12.31;100.00;101177.78;1808438;79;20153;-71
2021/05/01 04:26:45;;;;;;;;;;;;;;;12.36;100.00;101180.06;1808485;79;20141;-71
2021/05/01 04:29:13;;;;;;;;;;;;;;;12.42;100.00;101186.16;1808278;78;21400;-71
2021/05/01 04:31:41;;;;;;;;;;;;;;;12.48;100.00;101185.77;1808334;79;20121;-72
2021/05/01 04:34:09;;;;;;;;;;;;;;;12.54;100.00;101182.78;1807977;79;20228;-72
2021/05/01 04:36:37;;;;;;;;;;;;;;;12.61;100.00;101184.02;1808502;78;20618;-72
2021/05/01 04:39:07;;;;;;;;;;;;;;;12.71;100.00;101190.30;1808245;78;20526;-72
2021/05/01 04:41:35;;;;;;;;;;;;;;;12.79;100.00;101185.42;1808350;78;21369;-72
2021/05/01 04:44:06;;;;;;;;;;;;;;;12.88;100.00;101190.02;1808142;79;20236;-72
2021/05/01 04:46:51;;;;;;;;;;;;;;;13.00;100.00;101189.65;1808123;79;20141;-72
2021/05/01 04:49:19;;;;;;;;;;;;;;;13.10;100.00;101185.05;1808355;79;20877;-73
2021/05/01 04:51:48;;;;;;;;;;;;;;;13.22;100.00;101186.81;1808168;78;20538;-73
2021/05/01 04:54:16;;;;;;;;;;;;;;;13.33;100.00;101188.69;1808281;78;22287;-73
2021/05/01 04:56:44;;;;;;;;;;;;;;;13.44;100.00;101185.33;1808429;79;20513;-74
2021/05/01 04:59:12;;;;;;;;;;;;;;;13.54;100.00;101173.31;1807836;78;20287;-74
2021/05/01 05:01:40;;;;;;;;;;;;;;;13.65;100.00;101174.71;1808223;79;20316;-73
2021/05/01 05:04:08;;;;;;;;;;;;;;;13.76;100.00;101179.52;1808190;78;20232;-74
2021/05/01 05:06:37;;;;;;;;;;;;;;;13.88;100.00;101169.98;1808331;79;21372;-73
2021/05/01 05:09:05;;;;;;;;;;;;;;;14.00;100.00;101175.64;1808420;78;20527;-73
2021/05/01 05:11:32;;;;;;;;;;;;;;;14.11;100.00;101176.98;1808408;79;20304;-73
2021/05/01 05:14:02;;;;;;;;;;;;;;;14.24;100.00;101180.38;1808092;79;20271;-73
2021/05/01 05:16:30;;;;;;;;;;;;;;;14.40;100.00;101185.34;1808359;79;20145;-73
2021/05/01 05:18:57;;;;;;;;;;;;;;;14.55;100.00;101192.53;1808430;78;22095;-73
2021/05/01 05:21:26;;;;;;;;;;;;;;;14.72;100.00;101202.55;1807981;79;20626;-73
2021/05/01 05:23:54;;;;;;;;;;;;;;;14.88;100.00;101204.84;1808322;78;20177;-73
2021/05/01 05:26:23;;;;;;;;;;;;;;;15.06;100.00;101208.70;1808271;79;20165;-73
2021/05/01 05:28:52;;;;;;;;;;;;;;;15.22;100.00;101205.27;1808209;78;20213;-73
2021/05/01 05:31:20;;;;;;;;;;;;;;;15.40;100.00;101210.86;1808359;79;21188;-73
2021/05/01 05:33:48;;;;;;;;;;;;;;;15.57;99.28;101216.96;1808006;79;20145;-73
2021/05/01 05:36:16;;;;;;;;;;;;;;;15.75;98.32;101220.74;1808267;78;20678;-73
2021/05/01 05:38:44;;;;;;;;;;;;;;;15.85;96.78;101213.37;1808411;79;20507;-75
2021/05/01 05:41:11;;;;;;;;;;;;;;;15.89;95.27;101210.84;1808606;79;20527;-73
2021/05/01 05:43:40;;;;;;;;;;;;;;;15.88;94.29;101205.27;1808191;79;21182;-73
2021/05/01 05:46:14;;;;;;;;;;;;;;;15.86;93.70;101201.08;1808152;78;20744;-74
2021/05/01 05:48:38;;;;;;;;;;;;;;;15.87;93.49;101197.05;1807958;79;20172;-74
2021/05/01 05:51:06;;;;;;;;;;;;;;;15.92;93.29;101195.39;1808154;79;20165;-74
2021/05/01 05:53:34;;;;;;;;;;;;;;;15.98;93.18;101178.35;1808517;78;20235;-74
2021/05/01 05:56:01;;;;;;;;;;;;;;;16.03;92.84;101179.64;1808381;79;22081;-73
2021/05/01 05:58:29;;;;;;;;;;;;;;;16.07;92.47;101189.39;1810000;78;20232;-74
2021/05/01 06:00:57;;;;;;;;;;;;;;;16.10;92.37;101181.28;1811558;79;20157;-73
2021/05/01 06:03:25;;;;;;;;;;;;;;;16.15;92.11;101181.26;1811491;79;20228;-73
2021/05/01 06:05:56;;;;;;;;;;;;;;;16.20;91.98;101175.66;1811630;79;20184;-74
2021/05/01 06:08:24;;;;;;;;;;;;;;;16.31;91.82;101180.84;1811580;79;21193;-73
2021/05/01 06:10:54;;;;;;;;;;;;;;;16.37;91.54;101177.24;1811597;79;20311;-73
2021/05/01 06:13:22;;;;;;;;;;;;;;;16.50;91.46;101178.84;1811580;79;20204;-73
2021/05/01 06:15:50;;;;;;;;;;;;;;;16.66;91.23;101189.76;1811754;79;20915;-73
2021/05/01 06:18:21;;;;;;;;;;;;;;;16.83;90.56;101192.66;1811770;79;20141;-73
2021/05/01 06:20:49;;;;;;;;;;;;;;;16.99;89.92;101193.98;1811815;79;20510;-75
2021/05/01 06:23:18;;;;;;;;;;;;;;;17.20;89.28;101196.92;1811660;79;20181;-74
2021/05/01 06:25:47;;;;;;;;;;;;;;;17.46;88.51;101200.77;1811526;79;20240;-73
2021/05/01 06:28:15;;;;;;;;;;;;;;;17.75;87.55;101187.78;1811640;79;20259;-74
2021/05/01 06:30:44;;;;;;;;;;;;;;;18.07;85.95;101185.41;1811728;79;20565;-74
2021/05/01 06:33:15;;;;;;;;;;;;;;;18.36;84.62;101188.89;1811528;79;21196;-74
2021/05/01 06:35:47;;;;;;;;;;;;;;;18.63;83.06;101194.32;1811468;79;20656;-74
2021/05/01 06:38:17;;;;;;;;;;;;;;;18.85;81.74;101187.44;1811489;79;20558;-73
2021/05/01 06:40:50;;;;;;;;;;;;;;;19.02;80.69;101195.89;1811610;79;20538;-74
2021/05/01 06:43:31;;;;;;;;;;;;;;;19.11;79.86;101192.91;1811533;79;20601;-74
2021/05/01 06:46:00;;;;;;;;;;;;;;;19.19;79.23;101193.49;1811608;79;21197;-73
2021/05/01 06:48:29;;;;;;;;;;;;;;;19.24;78.33;101191.27;1811678;79;20232;-74
2021/05/01 06:51:01;;;;;;;;;;;;;;;19.28;77.53;101184.73;1811700;79;20518;-73
2021/05/01 06:53:30;;;;;;;;;;;;;;;19.30;76.56;101187.58;1811502;79;20283;-73
2021/05/01 06:56:03;;;;;;;;;;;;;;;19.36;76.47;101187.00;1811865;79;20515;-73
2021/05/01 06:58:31;;;;;;;;;;;;;;;19.43;76.26;101185.45;1811636;78;21804;-73
2021/05/01 07:01:04;;;;;;;;;;;;;;;19.59;76.16;101181.38;1811588;79;20240;-73
2021/05/01 07:03:32;;;;;;;;;;;;;;;19.74;75.66;101185.17;1811612;79;20267;-73
2021/05/01 07:05:59;;;;;;;;;;;;;;;19.93;74.64;101180.62;1811617;79;20120;-74
2021/05/01 07:08:27;;;;;;;;;;;;;;;20.14;73.73;101181.64;1811808;79;20320;-73
2021/05/01 07:10:55;;;;;;;;;;;;;;;20.42;73.09;101181.12;1811912;79;21314;-74
2021/05/01 07:13:24;;;;;;;;;;;;;;;20.71;72.21;101194.05;1811701;79;20518;-73
2021/05/01 07:15:52;;;;;;;;;;;;;;;20.99;70.68;101193.75;1811786;79;20137;-73
2021/05/01 07:18:23;;;;;;;;;;;;;;;21.21;68.64;101204.78;1811627;79;20160;-73
2021/05/01 07:20:51;;;;;;;;;;;;;;;21.36;66.48;101206.67;1784786;79;20232;-73
2021/05/01 07:23:19;;;;;;;;;;;;;;;21.51;66.51;101209.53;1811827;79;21180;-73
2021/05/01 07:25:46;;;;;;;;;;;;;;;21.73;66.61;101210.28;1784536;79;20240;-73
2021/05/01 07:28:14;;;;;;;;;;;;;;;21.97;66.07;101205.61;1811771;79;20125;-73
2021/05/01 07:30:42;;;;;;;;;;;;;;;22.17;64.26;101208.30;1811803;79;20240;-73
2021/05/01 07:33:33;;;;;;;;;;;;;;;22.28;63.24;101209.30;1811896;79;20132;-74
2021/05/01 07:36:15;;;;;;;;;;;;;;;22.38;62.85;101210.47;1811853;79;21188;-73
2021/05/01 07:38:43;;;;;;;;;;;;;;;22.41;61.75;101210.97;1797436;79;20192;-74
2021/05/01 07:41:13;;;;;;;;;;;;;;;22.42;61.72;101199.90;1811760;79;20298;-74
2021/05/01 07:43:49;;;;;;;;;;;;;;;22.40;62.04;101193.44;1811744;79;20156;-74
2021/05/01 07:46:17;;;;;;;;;;;;;;;22.43;62.35;101189.66;1811866;79;20125;-76
2021/05/01 07:48:47;;;;;;;;;;;;;;;22.44;61.87;101193.94;1784853;79;21205;-74
2021/05/01 07:51:14;;;;;;;;;;;;;;;22.42;62.16;101197.25;1811737;79;20522;-73
2021/05/01 07:53:44;;;;;;;;;;;;;;;22.45;62.04;101211.47;1811562;79;20236;-74
2021/05/01 07:56:14;;;;;;;;;;;;;;;22.47;61.62;101211.62;1811753;79;20137;-74
2021/05/01 07:58:42;;;;;;;;;;;;;;;22.56;61.87;101209.80;1811562;78;20264;-74
2021/05/01 08:01:10;;;;;;;;;;;;;;;22.74;61.54;101211.83;1811746;79;21250;-74
2021/05/01 08:03:38;;;;;;;;;;;;;;;22.96;61.02;101201.88;1811623;79;20141;-74
2021/05/01 08:06:05;;;;;;;;;;;;;;;23.15;60.23;101208.12;1811785;79;20230;-74
2021/05/01 08:08:34;;;;;;;;;;;;;;;23.30;59.64;101208.73;1811766;79;20229;-74
2021/05/01 08:11:02;;;;;;;;;;;;;;;23.37;58.58;101213.69;1811860;79;20259;-74
2021/05/01 08:13:30;;;;;;;;;;;;;;;23.42;58.54;101212.20;1811852;79;21185;-75
2021/05/01 08:15:58;;;;;;;;;;;;;;;23.47;58.27;101213.86;1811628;79;20140;-74
2021/05/01 08:18:25;;;;;;;;;;;;;;;23.57;57.48;101213.66;1811606;79;20521;-74
2021/05/01 08:20:53;;;;;;;;;;;;;;;23.76;55.85;101219.86;1811616;79;20299;-74
2021/05/01 08:23:21;;;;;;;;;;;;;;;24.00;55.86;101222.86;1811770;79;20121;-74
2021/05/01 08:25:49;;;;;;;;;;;;;;;24.26;54.87;101221.24;1811771;79;21605;-74
2021/05/01 08:28:17;;;;;;;;;;;;;;;24.48;53.22;101215.11;1811633;79;20141;-75
2021/05/01 08:30:44;;;;;;;;;;;;;;;24.66;52.44;101219.63;1811727;79;20144;-73
2021/05/01 08:33:12;;;;;;;;;;;;;;;24.83;51.77;101216.33;1811606;79;20200;-73
2021/05/01 08:35:40;;;;;;;;;;;;;;;24.91;51.19;101213.12;1811902;79;20145;-72
2021/05/01 08:38:08;;;;;;;;;;;;;;;24.96;50.75;101211.23;1811567;79;22273;-73
2021/05/01 08:40:36;;;;;;;;;;;;;;;25.04;50.13;101209.84;1811692;79;20141;-72
2021/05/01 08:43:04;;;;;;;;;;;;;;;25.07;49.08;101211.62;1811684;79;20137;-72
2021/05/01 08:45:32;;;;;;;;;;;;;;;25.09;48.96;101212.76;1811795;79;20733;-71
2021/05/01 08:48:00;;;;;;;;;;;;;;;25.13;49.40;101212.72;1811751;79;20149;-71
2021/05/01 08:50:31;;;;;;;;;;;;;;;25.14;48.04;101201.90;1811958;79;22162;-72
2021/05/01 08:52:59;;;;;;;;;;;;;;;25.08;47.54;101199.97;1811621;79;20240;-72
2021/05/01 08:55:28;;;;;;;;;;;;;;;25.10;47.97;101203.30;1811784;79;20231;-74
2021/05/01 08:57:56;;;;;;;;;;;;;;;25.12;47.27;101197.78;1811737;79;20149;-78
2021/05/01 09:00:24;;;;;;;;;;;;;;;25.14;45.93;101201.90;1830664;78;20536;-75
2021/05/01 09:02:51;;;;;;;;;;;;;;;25.21;46.83;101205.48;1834977;78;21203;-76
2021/05/01 09:05:19;;;;;;;;;;;;;;;25.37;45.68;101203.67;1834926;78;20231;-74
2021/05/01 09:07:47;;;;;;;;;;;;;;;25.58;44.84;101197.11;1835074;78;20160;-75
2021/05/01 09:10:14;;;;;;;;;;;;;;;25.73;44.87;101205.38;1809537;78;20349;-75
2021/05/01 09:12:44;;;;;;;;;;;;;;;25.80;44.68;101192.16;1834928;78;20239;-75
2021/05/01 09:15:23;;;;;;;;;;;;;;;25.82;43.41;101199.94;1834965;78;21312;-75
2021/05/01 09:17:58;;;;;;;;;;;;;;;25.78;44.29;101198.19;1833314;78;20239;-75
2021/05/01 09:20:26;;;;;;;;;;;;;;;25.86;46.55;101194.57;1835205;78;20155;-74
2021/05/01 09:23:00;;;;;;;;;;;;;;;25.85;46.90;101187.09;1834954;78;20228;-74
2021/05/01 09:25:31;;;;;;;;;;;;;;;25.84;47.26;101199.27;1837104;78;20176;-74
2021/05/01 09:28:17;;;;;;;;;;;;;;;25.86;47.77;101197.23;1837007;78;21192;-77
2021/05/01 09:30:42;;;;;;;;;;;;;;;25.98;46.88;101196.55;1834934;78;20184;-77
2021/05/01 09:33:23;;;;;;;;;;;;;;;25.97;46.14;101202.91;1835204;78;20317;-75
2021/05/01 09:35:53;;;;;;;;;;;;;;;25.96;46.53;101196.43;1834948;78;20168;-75
2021/05/01 09:38:21;;;;;;;;;;;;;;;26.05;47.66;101191.30;1834914;78;20255;-74
2021/05/01 09:40:49;;;;;;;;;;;;;;;26.27;46.73;101195.15;1834893;78;21202;-76
2021/05/01 09:43:16;;;;;;;;;;;;;;;26.62;46.20;101190.74;1834952;78;20235;-75
2021/05/01 09:45:45;;;;;;;;;;;;;;;27.00;45.33;101194.41;1835089;78;20286;-73
2021/05/01 09:48:19;;;;;;;;;;;;;;;27.49;45.24;101196.98;1834987;78;37863;-75
2021/05/01 09:50:47;;;;;;;;;;;;;;;28.00;42.44;101196.84;1835143;78;20227;-76
2021/05/01 09:53:17;;;;;;;;;;;;;;;28.26;42.40;101194.27;1809032;78;21370;-75
2021/05/01 09:55:47;;;;;;;;;;;;;;;28.64;42.08;101194.48;1835099;78;20582;-75
2021/05/01 09:58:17;;;;;;;;;;;;;;;28.97;40.42;101192.32;1835168;78;20187;-72
2021/05/01 10:00:45;;;;;;;;;;;;;;;29.58;39.99;101194.13;1834934;78;20199;-74
2021/05/01 10:03:25;;;;;;;;;;;;;;;30.51;37.50;101181.81;1835144;78;20266;-73
2021/05/01 10:05:55;;;;;;;;;;;;;;;31.27;34.56;101183.13;1835052;78;21188;-73
2021/05/01 10:08:27;;;;;;;;;;;;;;;32.11;34.31;101178.25;1834897;78;20587;-73
2021/05/01 10:10:54;;;;;;;;;;;;;;;32.91;32.34;101176.70;1834628;78;20235;-72
2021/05/01 10:13:24;;;;;;;;;;;;;;;33.64;31.05;101176.09;1835233;78;20254;-74
2021/05/01 10:15:52;;;;;;;;;;;;;;;34.38;30.44;101172.31;1835103;78;20303;-74
2021/05/01 10:18:20;;;;;;;;;;;;;;;34.99;28.99;101168.65;1835072;78;20709;-74
2021/05/01 10:20:50;;;;;;;;;;;;;;;35.73;28.42;101164.16;1835101;78;20230;-77
2021/05/01 10:23:19;;;;;;;;;;;;;;;36.58;26.47;101164.10;1835003;78;20232;-75
2021/05/01 10:25:47;;;;;;;;;;;;;;;37.05;25.75;101160.86;1835013;78;20215;-74
2021/05/01 10:28:17;;;;;;;;;;;;;;;37.35;25.45;101153.41;1835170;78;20294;-72
2021/05/01 10:30:52;;;;;;;;;;;;;;;37.70;24.92;101148.63;1835352;78;22114;-78
2021/05/01 10:35:58;;;;;;;;;;;;;;;37.07;25.38;101147.08;1835162;78;20517;-73
2021/05/01 10:38:25;;;;;;;;;;;;;;;36.79;26.32;101148.28;1835235;78;20635;-81
2021/05/01 10:40:59;;;;;;;;;;;;;;;36.50;24.88;101153.75;1835484;78;20253;-75
2021/05/01 10:43:29;;;;;;;;;;;;;;;35.89;25.66;101152.43;1837551;78;22344;-74
2021/05/01 10:46:07;;;;;;;;;;;;;;;35.31;26.42;101150.44;1835081;78;20152;-75
2021/05/01 10:48:49;;;;;;;;;;;;;;;34.76;26.58;101155.91;1835731;78;20518;-75
2021/05/01 10:51:19;;;;;;;;;;;;;;;34.36;27.08;101152.06;1835235;78;20237;-75
2021/05/01 10:53:50;;;;;;;;;;;;;;;34.38;28.09;101153.97;1835473;78;20144;-76
2021/05/01 10:56:21;;;;;;;;;;;;;;;34.44;27.54;101158.38;1835280;78;21363;-78
2021/05/01 10:58:50;;;;;;;;;;;;;;;34.30;26.99;101162.48;1834934;78;20231;-75
2021/05/01 11:01:46;;;;;;;;;;;;;;;33.87;27.38;101160.36;1810475;78;20288;-76
2021/05/01 11:04:06;;;;;;;;;;;;;;;33.62;27.16;101162.08;1806617;79;20539;-73
2021/05/01 11:06:52;;;;;;;;;;;;;;;33.28;28.37;101157.05;1808256;79;20506;-77
2021/05/01 11:09:46;;;;;;;;;;;;;;;33.07;28.17;101153.64;1808552;78;21181;-78
2021/05/01 11:12:19;;;;;;;;;;;;;;;32.83;28.01;101142.64;1808597;78;20542;-78
2021/05/01 11:14:57;;;;;;;;;;;;;;;32.72;27.32;101139.42;1808591;79;20173;-74
2021/05/01 11:17:35;;;;;;;;;;;;;;;32.34;27.74;101129.95;1808461;79;20914;-74
2021/05/01 11:20:09;;;;;;;;;;;;;;;31.85;28.71;101123.05;1808423;79;20280;-78
2021/05/01 11:22:38;;;;;;;;;;;;;;;32.00;29.82;101123.42;1808636;79;21953;-75
2021/05/01 11:25:12;;;;;;;;;;;;;;;32.43;27.99;101122.34;1808446;79;20518;-77
2021/05/01 11:27:43;;;;;;;;;;;;;;;32.63;28.66;101114.79;1808512;78;20227;-75
2021/05/01 11:30:12;;;;;;;;;;;;;;;33.22;28.43;101114.19;1808155;78;20771;-75
2021/05/01 11:32:41;;;;;;;;;;;;;;;33.99;28.02;101112.63;1808720;79;20227;-77
2021/05/01 11:35:10;;;;;;;;;;;;;;;34.49;26.55;101099.97;1808410;78;21195;-79
2021/05/01 11:37:44;;;;;;;;;;;;;;;34.54;25.67;101100.58;1808450;79;20148;-77
2021/05/01 11:40:13;;;;;;;;;;;;;;;34.31;26.30;101102.13;1808679;78;20188;-74
2021/05/01 11:42:41;;;;;;;;;;;;;;;34.06;25.80;101105.21;1808683;79;20153;-77
2021/05/01 11:45:13;;;;;;;;;;;;;;;34.22;25.54;101112.50;1808484;78;20303;-74
2021/05/01 11:47:48;;;;;;;;;;;;;;;34.18;26.04;101117.27;1808864;79;21156;-80
2021/05/01 11:50:17;;;;;;;;;;;;;;;33.88;26.18;101116.23;1808530;78;20661;-78
2021/05/01 11:53:03;;;;;;;;;;;;;;;33.68;27.22;101118.56;1808779;78;20129;-75
2021/05/01 11:55:34;;;;;;;;;;;;;;;33.29;26.88;101119.69;1808465;79;20279;-77
2021/05/01 11:58:03;;;;;;;;;;;;;;;32.29;28.64;101117.72;1808634;79;20573;-76
2021/05/01 12:00:37;;;;;;;;;;;;;;;32.27;29.39;101109.61;1808539;78;21184;-77
2021/05/01 12:03:23;;;;;;;;;;;;;;;32.80;28.33;101113.55;1808435;79;20156;-75
2021/05/01 12:05:56;;;;;;;;;;;;;;;32.73;28.19;101110.98;1808393;78;20138;-75
2021/05/01 12:08:25;;;;;;;;;;;;;;;32.58;28.46;101099.88;1808410;79;20308;-75
2021/05/01 12:10:55;;;;;;;;;;;;;;;32.72;27.60;101091.05;1777865;79;20244;-74
2021/05/01 12:13:32;;;;;;;;;;;;;;;32.83;27.77;101088.36;1808253;79;21221;-72
2021/05/01 12:15:59;;;;;;;;;;;;;;;32.88;27.64;101079.04;1777188;79;20307;-74
2021/05/01 12:18:46;;;;;;;;;;;;;;;32.70;27.70;101087.27;1808258;79;20695;-76
2021/05/01 12:21:31;;;;;;;;;;;;;;;32.80;28.00;101086.66;1808067;78;20303;-73
2021/05/01 12:23:59;;;;;;;;;;;;;;;32.97;27.59;101080.30;1808550;79;20141;-74
2021/05/01 12:26:36;;;;;;;;;;;;;;;32.88;27.60;101077.69;1804022;79;21137;-73
2021/05/01 12:29:26;;;;;;;;;;;;;;;33.12;27.68;101074.45;1808228;79;20145;-76
2021/05/01 12:32:05;;;;;;;;;;;;;;;33.81;27.28;101067.10;1808571;78;20268;-74
2021/05/01 12:34:56;;;;;;;;;;;;;;;34.53;25.68;101061.20;1808363;78;20268;-71
2021/05/01 12:37:26;;;;;;;;;;;;;;;34.63;25.60;101058.67;1808438;79;20240;-73
2021/05/01 12:40:05;;;;;;;;;;;;;;;34.01;26.35;101062.88;1808078;79;21732;-75
2021/05/01 12:42:33;;;;;;;;;;;;;;;33.53;26.80;101065.26;1808165;79;20300;-74
2021/05/01 12:45:01;;;;;;;;;;;;;;;32.98;26.08;101055.05;1808262;79;20157;-74
2021/05/01 12:47:42;;;;;;;;;;;;;;;32.22;27.90;101050.41;1808216;79;20255;-75
2021/05/01 12:50:17;;;;;;;;;;;;;;;31.43;29.58;101055.11;1808309;78;20356;-80